sensor_id;sensor_type;location;lat;lon;timestamp;temperature;humidity
5743;DHT22;2896;53.500;10.020;2022-09-17T00:00:27;12.40;99.90
5743;DHT22;2896;53.500;10.020;2022-09-17T00:02:55;12.30;99.90
5743;DHT22;2896;53.500;10.020;2022-09-17T00:05:22;12.40;99.90
5743;DHT22;2896;53.500;10.020;2022-09-17T00:07:49;12.50;99.90
5743;DHT22;2896;53.500;10.020;2022-09-17T00:10:16;12.50;99.90
5743;DHT22;2896;53.500;10.020;2022-09-17T00:12:43;12.60;99.90
5743;DHT22;2896;53.500;10.020;2022-09-17T00:15:10;12.50;99.90
5743;DHT22;2896;53.500;10.020;2022-09-17T00:17:37;12.50;99.90
5743;DHT22;2896;53.500;10.020;2022-09-17T00:20:07;12.50;99.90
5743;DHT22;2896;53.500;10.020;2022-09-17T00:22:34;12.50;99.90
5743;DHT22;2896;53.500;10.020;2022-09-17T00:25:01;12.50;99.90
5743;DHT22;2896;53.500;10.020;2022-09-17T00:27:28;12.40;99.90
5743;DHT22;2896;53.500;10.020;2022-09-17T00:29:55;12.50;99.90
5743;DHT22;2896;53.500;10.020;2022-09-17T00:32:21;12.40;99.90
5743;DHT22;2896;53.500;10.020;2022-09-17T00:34:49;12.40;99.90
5743;DHT22;2896;53.500;10.020;2022-09-17T00:37:18;12.50;99.90
5743;DHT22;2896;53.500;10.020;2022-09-17T00:39:44;12.50;99.90
5743;DHT22;2896;53.500;10.020;2022-09-17T00:42:11;12.50;99.90
5743;DHT22;2896;53.500;10.020;2022-09-17T00:44:42;12.40;99.90
5743;DHT22;2896;53.500;10.020;2022-09-17T00:47:19;12.50;99.90
5743;DHT22;2896;53.500;10.020;2022-09-17T00:49:48;12.50;99.90
5743;DHT22;2896;53.500;10.020;2022-09-17T00:52:21;12.50;99.90
5743;DHT22;2896;53.500;10.020;2022-09-17T00:54:55;12.40;99.90
5743;DHT22;2896;53.500;10.020;2022-09-17T00:57:23;12.40;99.90
5743;DHT22;2896;53.500;10.020;2022-09-17T00:59:50;12.30;99.90
5743;DHT22;2896;53.500;10.020;2022-09-17T01:02:18;12.40;99.90
5743;DHT22;2896;53.500;10.020;2022-09-17T01:04:45;12.30;99.90
5743;DHT22;2896;53.500;10.020;2022-09-17T01:07:20;12.30;99.90
5743;DHT22;2896;53.500;10.020;2022-09-17T01:09:53;12.30;99.90
5743;DHT22;2896;53.500;10.020;2022-09-17T01:12:41;12.20;99.90
5743;DHT22;2896;53.500;10.020;2022-09-17T01:15:22;12.10;99.90
5743;DHT22;2896;53.500;10.020;2022-09-17T01:17:59;12.10;99.90
5743;DHT22;2896;53.500;10.020;2022-09-17T01:20:58;12.00;99.90
5743;DHT22;2896;53.500;10.020;2022-09-17T01:23:50;12.10;99.90
5743;DHT22;2896;53.500;10.020;2022-09-17T01:26:41;12.00;99.90
5743;DHT22;2896;53.500;10.020;2022-09-17T01:29:27;12.00;99.90
5743;DHT22;2896;53.500;10.020;2022-09-17T01:32:05;12.00;99.90
5743;DHT22;2896;53.500;10.020;2022-09-17T01:34:40;11.90;99.90
5743;DHT22;2896;53.500;10.020;2022-09-17T01:37:12;12.00;99.90
5743;DHT22;2896;53.500;10.020;2022-09-17T01:39:45;12.00;99.90
5743;DHT22;2896;53.500;10.020;2022-09-17T01:42:18;11.90;99.90
5743;DHT22;2896;53.500;10.020;2022-09-17T01:44:51;11.90;99.90
5743;DHT22;2896;53.500;10.020;2022-09-17T01:47:22;12.00;99.90
5743;DHT22;2896;53.500;10.020;2022-09-17T01:49:51;11.90;99.90
5743;DHT22;2896;53.500;10.020;2022-09-17T01:52:19;11.90;99.90
5743;DHT22;2896;53.500;10.020;2022-09-17T01:54:50;11.80;99.90
5743;DHT22;2896;53.500;10.020;2022-09-17T01:57:24;11.90;99.90
5743;DHT22;2896;53.500;10.020;2022-09-17T01:59:55;11.80;99.90
5743;DHT22;2896;53.500;10.020;2022-09-17T02:02:28;11.70;99.90
5743;DHT22;2896;53.500;10.020;2022-09-17T02:04:59;11.80;99.90
5743;DHT22;2896;53.500;10.020;2022-09-17T02:07:29;11.80;99.90
5743;DHT22;2896;53.500;10.020;2022-09-17T02:10:00;11.80;99.90
5743;DHT22;2896;53.500;10.020;2022-09-17T02:12:32;11.80;99.90
5743;DHT22;2896;53.500;10.020;2022-09-17T02:15:02;11.80;99.90
5743;DHT22;2896;53.500;10.020;2022-09-17T02:17:35;11.80;99.90
5743;DHT22;2896;53.500;10.020;2022-09-17T02:20:03;11.70;99.90
5743;DHT22;2896;53.500;10.020;2022-09-17T02:22:36;11.70;99.90
5743;DHT22;2896;53.500;10.020;2022-09-17T02:25:07;11.70;99.90
5743;DHT22;2896;53.500;10.020;2022-09-17T02:27:47;11.70;99.90
5743;DHT22;2896;53.500;10.020;2022-09-17T02:30:15;11.70;99.90
5743;DHT22;2896;53.500;10.020;2022-09-17T02:32:43;11.60;99.90
5743;DHT22;2896;53.500;10.020;2022-09-17T02:35:11;11.60;99.90
5743;DHT22;2896;53.500;10.020;2022-09-17T02:37:38;11.70;99.90
5743;DHT22;2896;53.500;10.020;2022-09-17T02:40:06;11.70;99.90
5743;DHT22;2896;53.500;10.020;2022-09-17T02:42:40;11.70;99.90
5743;DHT22;2896;53.500;10.020;2022-09-17T02:45:17;11.70;99.90
5743;DHT22;2896;53.500;10.020;2022-09-17T02:48:15;11.70;99.90
5743;DHT22;2896;53.500;10.020;2022-09-17T02:51:04;11.80;99.90
5743;DHT22;2896;53.500;10.020;2022-09-17T02:53:39;11.60;99.90
5743;DHT22;2896;53.500;10.020;2022-09-17T02:56:15;11.60;99.90
5743;DHT22;2896;53.500;10.020;2022-09-17T02:58:46;11.60;99.90
5743;DHT22;2896;53.500;10.020;2022-09-17T03:01:21;11.50;99.90
5743;DHT22;2896;53.500;10.020;2022-09-17T03:03:53;11.60;99.90
5743;DHT22;2896;53.500;10.020;2022-09-17T03:06:22;11.60;99.90
5743;DHT22;2896;53.500;10.020;2022-09-17T03:08:49;11.70;99.90
5743;DHT22;2896;53.500;10.020;2022-09-17T03:11:15;11.70;99.90
5743;DHT22;2896;53.500;10.020;2022-09-17T03:13:42;11.70;99.90
5743;DHT22;2896;53.500;10.020;2022-09-17T03:16:09;11.60;99.90
5743;DHT22;2896;53.500;10.020;2022-09-17T03:18:35;11.60;99.90
5743;DHT22;2896;53.500;10.020;2022-09-17T03:21:03;11.60;99.90
5743;DHT22;2896;53.500;10.020;2022-09-17T03:23:30;11.60;99.90
5743;DHT22;2896;53.500;10.020;2022-09-17T03:25:58;11.60;99.90
5743;DHT22;2896;53.500;10.020;2022-09-17T03:28:24;11.60;99.90
5743;DHT22;2896;53.500;10.020;2022-09-17T03:30:51;11.60;99.90
5743;DHT22;2896;53.500;10.020;2022-09-17T03:33:18;11.60;99.90
5743;DHT22;2896;53.500;10.020;2022-09-17T03:35:45;11.60;99.90
5743;DHT22;2896;53.500;10.020;2022-09-17T03:38:13;11.60;99.90
5743;DHT22;2896;53.500;10.020;2022-09-17T03:40:40;11.60;99.90
5743;DHT22;2896;53.500;10.020;2022-09-17T03:43:07;11.50;99.90
5743;DHT22;2896;53.500;10.020;2022-09-17T03:45:34;11.50;99.90
5743;DHT22;2896;53.500;10.020;2022-09-17T03:48:01;11.60;99.90
5743;DHT22;2896;53.500;10.020;2022-09-17T03:50:27;11.50;99.90
5743;DHT22;2896;53.500;10.020;2022-09-17T03:52:54;11.50;99.90
5743;DHT22;2896;53.500;10.020;2022-09-17T03:55:22;11.50;99.90
5743;DHT22;2896;53.500;10.020;2022-09-17T03:57:48;11.50;99.90
5743;DHT22;2896;53.500;10.020;2022-09-17T04:00:15;11.50;99.90
5743;DHT22;2896;53.500;10.020;2022-09-17T04:02:42;11.50;99.90
5743;DHT22;2896;53.500;10.020;2022-09-17T04:05:09;11.50;99.90
5743;DHT22;2896;53.500;10.020;2022-09-17T04:07:35;11.50;99.90
5743;DHT22;2896;53.500;10.020;2022-09-17T04:10:02;11.40;99.90
5743;DHT22;2896;53.500;10.020;2022-09-17T04:12:31;11.50;99.90
5743;DHT22;2896;53.500;10.020;2022-09-17T04:14:58;11.40;99.90
5743;DHT22;2896;53.500;10.020;2022-09-17T04:17:24;11.30;99.90
5743;DHT22;2896;53.500;10.020;2022-09-17T04:19:51;11.30;99.90
5743;DHT22;2896;53.500;10.020;2022-09-17T04:22:18;11.30;99.90
5743;DHT22;2896;53.500;10.020;2022-09-17T04:24:45;11.20;99.90
5743;DHT22;2896;53.500;10.020;2022-09-17T04:27:12;11.20;99.90
5743;DHT22;2896;53.500;10.020;2022-09-17T04:29:39;11.40;99.90
5743;DHT22;2896;53.500;10.020;2022-09-17T04:32:06;11.30;99.90
5743;DHT22;2896;53.500;10.020;2022-09-17T04:34:33;11.40;99.90
5743;DHT22;2896;53.500;10.020;2022-09-17T04:37:00;11.30;99.90
5743;DHT22;2896;53.500;10.020;2022-09-17T04:39:26;11.30;99.90
5743;DHT22;2896;53.500;10.020;2022-09-17T04:41:54;11.20;99.90
5743;DHT22;2896;53.500;10.020;2022-09-17T04:44:20;11.60;99.90
5743;DHT22;2896;53.500;10.020;2022-09-17T04:46:49;11.30;99.90
5743;DHT22;2896;53.500;10.020;2022-09-17T04:49:16;11.30;99.90
5743;DHT22;2896;53.500;10.020;2022-09-17T04:51:43;11.30;99.90
5743;DHT22;2896;53.500;10.020;2022-09-17T04:54:09;11.30;99.90
5743;DHT22;2896;53.500;10.020;2022-09-17T04:56:36;11.30;99.90
5743;DHT22;2896;53.500;10.020;2022-09-17T04:59:03;11.20;99.90
5743;DHT22;2896;53.500;10.020;2022-09-17T05:01:29;11.30;99.90
5743;DHT22;2896;53.500;10.020;2022-09-17T05:03:57;11.20;99.90
5743;DHT22;2896;53.500;10.020;2022-09-17T05:06:24;10.10;99.90
5743;DHT22;2896;53.500;10.020;2022-09-17T05:08:51;11.20;99.90
5743;DHT22;2896;53.500;10.020;2022-09-17T05:11:18;11.20;99.90
5743;DHT22;2896;53.500;10.020;2022-09-17T05:13:44;11.20;99.90
5743;DHT22;2896;53.500;10.020;2022-09-17T05:16:11;11.20;99.90
5743;DHT22;2896;53.500;10.020;2022-09-17T05:18:37;11.20;99.90
5743;DHT22;2896;53.500;10.020;2022-09-17T05:21:06;11.30;99.90
5743;DHT22;2896;53.500;10.020;2022-09-17T05:23:32;11.20;99.90
5743;DHT22;2896;53.500;10.020;2022-09-17T05:25:59;11.20;99.90
5743;DHT22;2896;53.500;10.020;2022-09-17T05:28:26;11.30;99.90
5743;DHT22;2896;53.500;10.020;2022-09-17T05:30:52;11.20;99.90
5743;DHT22;2896;53.500;10.020;2022-09-17T05:33:19;11.20;99.90
5743;DHT22;2896;53.500;10.020;2022-09-17T05:35:45;11.20;99.90
5743;DHT22;2896;53.500;10.020;2022-09-17T05:38:13;11.20;99.90
5743;DHT22;2896;53.500;10.020;2022-09-17T05:40:42;11.30;99.90
5743;DHT22;2896;53.500;10.020;2022-09-17T05:43:09;11.20;99.90
5743;DHT22;2896;53.500;10.020;2022-09-17T05:45:37;11.40;99.90
5743;DHT22;2896;53.500;10.020;2022-09-17T05:48:05;11.30;99.90
5743;DHT22;2896;53.500;10.020;2022-09-17T05:50:32;11.30;99.90
5743;DHT22;2896;53.500;10.020;2022-09-17T05:53:03;11.20;99.90
5743;DHT22;2896;53.500;10.020;2022-09-17T05:55:32;11.30;99.90
5743;DHT22;2896;53.500;10.020;2022-09-17T05:57:59;11.20;99.90
5743;DHT22;2896;53.500;10.020;2022-09-17T06:00:26;11.20;99.90
5743;DHT22;2896;53.500;10.020;2022-09-17T06:02:54;11.20;99.90
5743;DHT22;2896;53.500;10.020;2022-09-17T06:05:22;11.20;99.90
5743;DHT22;2896;53.500;10.020;2022-09-17T06:07:48;11.30;99.90
5743;DHT22;2896;53.500;10.020;2022-09-17T06:10:16;11.30;99.90
5743;DHT22;2896;53.500;10.020;2022-09-17T06:12:44;11.30;99.90
5743;DHT22;2896;53.500;10.020;2022-09-17T06:15:10;11.20;99.90
5743;DHT22;2896;53.500;10.020;2022-09-17T06:17:39;11.30;99.90
5743;DHT22;2896;53.500;10.020;2022-09-17T06:20:07;11.30;99.90
5743;DHT22;2896;53.500;10.020;2022-09-17T06:22:34;11.30;99.90
5743;DHT22;2896;53.500;10.020;2022-09-17T06:25:01;11.30;99.90
5743;DHT22;2896;53.500;10.020;2022-09-17T06:27:29;11.20;99.90
5743;DHT22;2896;53.500;10.020;2022-09-17T06:29:57;11.30;99.90
5743;DHT22;2896;53.500;10.020;2022-09-17T06:32:24;11.20;99.90
5743;DHT22;2896;53.500;10.020;2022-09-17T06:34:51;11.20;99.90
5743;DHT22;2896;53.500;10.020;2022-09-17T06:37:18;11.20;99.90
5743;DHT22;2896;53.500;10.020;2022-09-17T06:39:45;11.10;99.90
5743;DHT22;2896;53.500;10.020;2022-09-17T06:42:11;11.20;99.90
5743;DHT22;2896;53.500;10.020;2022-09-17T06:44:38;11.20;99.90
5743;DHT22;2896;53.500;10.020;2022-09-17T06:47:06;11.30;99.90
5743;DHT22;2896;53.500;10.020;2022-09-17T06:49:33;11.40;99.90
5743;DHT22;2896;53.500;10.020;2022-09-17T06:52:00;11.40;99.90
5743;DHT22;2896;53.500;10.020;2022-09-17T06:54:27;11.60;99.90
5743;DHT22;2896;53.500;10.020;2022-09-17T06:56:53;11.70;99.90
5743;DHT22;2896;53.500;10.020;2022-09-17T06:59:20;11.80;99.90
5743;DHT22;2896;53.500;10.020;2022-09-17T07:01:47;11.70;99.90
5743;DHT22;2896;53.500;10.020;2022-09-17T07:04:15;11.80;99.90
5743;DHT22;2896;53.500;10.020;2022-09-17T07:06:43;12.00;99.90
5743;DHT22;2896;53.500;10.020;2022-09-17T07:09:10;12.10;99.90
5743;DHT22;2896;53.500;10.020;2022-09-17T07:11:37;12.20;99.90
5743;DHT22;2896;53.500;10.020;2022-09-17T07:14:04;12.30;99.90
5743;DHT22;2896;53.500;10.020;2022-09-17T07:16:31;12.50;99.90
5743;DHT22;2896;53.500;10.020;2022-09-17T07:18:59;12.60;99.90
5743;DHT22;2896;53.500;10.020;2022-09-17T07:21:27;12.80;1.00
5743;DHT22;2896;53.500;10.020;2022-09-17T07:23:54;12.90;75.00
5743;DHT22;2896;53.500;10.020;2022-09-17T07:26:21;13.10;99.90
5743;DHT22;2896;53.500;10.020;2022-09-17T07:28:47;13.00;1.00
5743;DHT22;2896;53.500;10.020;2022-09-17T07:31:14;12.90;99.90
5743;DHT22;2896;53.500;10.020;2022-09-17T07:33:41;12.70;29.00
5743;DHT22;2896;53.500;10.020;2022-09-17T07:36:10;12.70;99.90
5743;DHT22;2896;53.500;10.020;2022-09-17T07:38:39;12.80;1.00
5743;DHT22;2896;53.500;10.020;2022-09-17T07:41:11;12.80;1.00
5743;DHT22;2896;53.500;10.020;2022-09-17T07:43:38;12.90;1.00
5743;DHT22;2896;53.500;10.020;2022-09-17T07:46:06;12.90;99.90
5743;DHT22;2896;53.500;10.020;2022-09-17T07:48:34;12.90;1.00
5743;DHT22;2896;53.500;10.020;2022-09-17T07:51:00;13.00;1.00
5743;DHT22;2896;53.500;10.020;2022-09-17T07:53:27;13.00;1.00
5743;DHT22;2896;53.500;10.020;2022-09-17T07:55:56;13.10;98.40
5743;DHT22;2896;53.500;10.020;2022-09-17T07:58:27;13.30;1.00
5743;DHT22;2896;53.500;10.020;2022-09-17T08:00:59;13.40;1.00
5743;DHT22;2896;53.500;10.020;2022-09-17T08:03:25;13.60;1.00
5743;DHT22;2896;53.500;10.020;2022-09-17T08:05:52;13.60;1.00
5743;DHT22;2896;53.500;10.020;2022-09-17T08:08:19;13.60;1.00
5743;DHT22;2896;53.500;10.020;2022-09-17T08:10:45;13.60;1.00
5743;DHT22;2896;53.500;10.020;2022-09-17T08:13:13;13.50;1.00
5743;DHT22;2896;53.500;10.020;2022-09-17T08:15:40;13.40;1.00
5743;DHT22;2896;53.500;10.020;2022-09-17T08:18:07;13.30;1.00
5743;DHT22;2896;53.500;10.020;2022-09-17T08:20:33;13.20;1.00
5743;DHT22;2896;53.500;10.020;2022-09-17T08:23:00;13.10;1.00
5743;DHT22;2896;53.500;10.020;2022-09-17T08:25:26;13.10;1.00
5743;DHT22;2896;53.500;10.020;2022-09-17T08:27:53;13.20;1.00
5743;DHT22;2896;53.500;10.020;2022-09-17T08:30:22;13.30;1.00
5743;DHT22;2896;53.500;10.020;2022-09-17T08:32:49;13.40;1.00
5743;DHT22;2896;53.500;10.020;2022-09-17T08:35:15;13.40;1.00
5743;DHT22;2896;53.500;10.020;2022-09-17T08:37:42;13.70;1.00
5743;DHT22;2896;53.500;10.020;2022-09-17T08:40:14;13.70;1.00
5743;DHT22;2896;53.500;10.020;2022-09-17T08:42:51;13.90;1.00
5743;DHT22;2896;53.500;10.020;2022-09-17T08:45:22;14.10;99.90
5743;DHT22;2896;53.500;10.020;2022-09-17T08:47:50;14.30;99.90
5743;DHT22;2896;53.500;10.020;2022-09-17T08:50:26;14.10;99.90
5743;DHT22;2896;53.500;10.020;2022-09-17T08:53:12;14.20;99.90
5743;DHT22;2896;53.500;10.020;2022-09-17T08:55:45;14.20;99.90
5743;DHT22;2896;53.500;10.020;2022-09-17T09:01:39;14.30;99.90
5743;DHT22;2896;53.500;10.020;2022-09-17T09:04:36;14.40;99.90
5743;DHT22;2896;53.500;10.020;2022-09-17T09:07:11;14.50;99.90
5743;DHT22;2896;53.500;10.020;2022-09-17T09:09:45;14.70;99.90
5743;DHT22;2896;53.500;10.020;2022-09-17T09:12:21;15.00;99.90
5743;DHT22;2896;53.500;10.020;2022-09-17T09:14:53;14.90;99.90
5743;DHT22;2896;53.500;10.020;2022-09-17T09:17:25;15.20;99.90
5743;DHT22;2896;53.500;10.020;2022-09-17T09:19:53;15.30;99.90
5743;DHT22;2896;53.500;10.020;2022-09-17T09:22:44;15.00;99.90
5743;DHT22;2896;53.500;10.020;2022-09-17T09:25:18;14.50;99.90
5743;DHT22;2896;53.500;10.020;2022-09-17T09:27:53;14.30;99.90
5743;DHT22;2896;53.500;10.020;2022-09-17T09:30:22;14.40;99.90
5743;DHT22;2896;53.500;10.020;2022-09-17T09:32:56;14.60;99.90
5743;DHT22;2896;53.500;10.020;2022-09-17T09:35:26;14.40;99.90
5743;DHT22;2896;53.500;10.020;2022-09-17T09:37:56;14.30;99.90
5743;DHT22;2896;53.500;10.020;2022-09-17T09:40:34;14.30;99.90
5743;DHT22;2896;53.500;10.020;2022-09-17T09:43:08;13.90;99.90
5743;DHT22;2896;53.500;10.020;2022-09-17T09:45:48;14.00;99.90
5743;DHT22;2896;53.500;10.020;2022-09-17T09:48:24;14.20;99.90
5743;DHT22;2896;53.500;10.020;2022-09-17T09:51:07;14.50;99.90
5743;DHT22;2896;53.500;10.020;2022-09-17T09:53:44;14.60;99.90
5743;DHT22;2896;53.500;10.020;2022-09-17T09:56:27;14.50;99.90
5743;DHT22;2896;53.500;10.020;2022-09-17T09:58:58;14.80;99.90
5743;DHT22;2896;53.500;10.020;2022-09-17T10:01:26;14.70;99.90
5743;DHT22;2896;53.500;10.020;2022-09-17T10:03:55;14.60;99.90
5743;DHT22;2896;53.500;10.020;2022-09-17T10:06:23;14.60;99.90
5743;DHT22;2896;53.500;10.020;2022-09-17T10:09:09;14.70;99.90
5743;DHT22;2896;53.500;10.020;2022-09-17T10:11:37;14.80;99.90
5743;DHT22;2896;53.500;10.020;2022-09-17T10:14:14;14.90;99.90
5743;DHT22;2896;53.500;10.020;2022-09-17T10:16:41;15.30;99.90
5743;DHT22;2896;53.500;10.020;2022-09-17T10:19:17;15.20;99.90
5743;DHT22;2896;53.500;10.020;2022-09-17T10:21:44;15.30;99.90
5743;DHT22;2896;53.500;10.020;2022-09-17T10:24:27;14.90;99.90
5743;DHT22;2896;53.500;10.020;2022-09-17T10:26:59;14.90;99.90
5743;DHT22;2896;53.500;10.020;2022-09-17T10:29:27;14.80;99.90
5743;DHT22;2896;53.500;10.020;2022-09-17T10:31:55;15.00;99.90
5743;DHT22;2896;53.500;10.020;2022-09-17T10:34:24;15.50;99.90
5743;DHT22;2896;53.500;10.020;2022-09-17T10:36:52;15.60;99.90
5743;DHT22;2896;53.500;10.020;2022-09-17T10:39:32;15.60;99.90
5743;DHT22;2896;53.500;10.020;2022-09-17T10:42:00;15.50;99.90
5743;DHT22;2896;53.500;10.020;2022-09-17T10:44:28;15.50;99.90
5743;DHT22;2896;53.500;10.020;2022-09-17T10:47:04;15.60;99.90
5743;DHT22;2896;53.500;10.020;2022-09-17T10:49:38;15.70;99.90
5743;DHT22;2896;53.500;10.020;2022-09-17T10:52:13;15.60;99.90
5743;DHT22;2896;53.500;10.020;2022-09-17T10:55:06;15.80;99.90
5743;DHT22;2896;53.500;10.020;2022-09-17T10:58:07;15.80;99.90
5743;DHT22;2896;53.500;10.020;2022-09-17T11:00:47;15.80;99.90
5743;DHT22;2896;53.500;10.020;2022-09-17T11:03:37;15.60;99.90
5743;DHT22;2896;53.500;10.020;2022-09-17T11:06:37;15.80;99.90
5743;DHT22;2896;53.500;10.020;2022-09-17T11:09:16;15.50;99.90
5743;DHT22;2896;53.500;10.020;2022-09-17T11:11:59;15.40;99.90
5743;DHT22;2896;53.500;10.020;2022-09-17T11:14:39;15.90;99.90
5743;DHT22;2896;53.500;10.020;2022-09-17T11:17:22;16.00;99.90
5743;DHT22;2896;53.500;10.020;2022-09-17T11:19:57;16.10;99.90
5743;DHT22;2896;53.500;10.020;2022-09-17T11:22:37;15.70;99.90
5743;DHT22;2896;53.500;10.020;2022-09-17T11:25:22;15.90;99.90
5743;DHT22;2896;53.500;10.020;2022-09-17T11:28:04;15.60;99.90
5743;DHT22;2896;53.500;10.020;2022-09-17T11:30:44;16.00;99.90
5743;DHT22;2896;53.500;10.020;2022-09-17T11:33:30;15.80;99.90
5743;DHT22;2896;53.500;10.020;2022-09-17T11:36:03;15.80;99.90
5743;DHT22;2896;53.500;10.020;2022-09-17T11:38:40;15.70;99.90
5743;DHT22;2896;53.500;10.020;2022-09-17T11:41:11;16.10;99.90
5743;DHT22;2896;53.500;10.020;2022-09-17T11:43:43;16.40;99.90
5743;DHT22;2896;53.500;10.020;2022-09-17T11:46:15;17.00;99.90
5743;DHT22;2896;53.500;10.020;2022-09-17T11:48:46;17.20;99.90
5743;DHT22;2896;53.500;10.020;2022-09-17T11:51:21;16.90;99.90
5743;DHT22;2896;53.500;10.020;2022-09-17T11:53:53;16.80;99.90
5743;DHT22;2896;53.500;10.020;2022-09-17T11:56:25;17.00;99.90
5743;DHT22;2896;53.500;10.020;2022-09-17T11:58:56;17.00;99.90
5743;DHT22;2896;53.500;10.020;2022-09-17T12:01:27;17.10;99.90
5743;DHT22;2896;53.500;10.020;2022-09-17T12:03:59;17.00;99.90
5743;DHT22;2896;53.500;10.020;2022-09-17T12:06:34;17.10;99.90
5743;DHT22;2896;53.500;10.020;2022-09-17T12:09:11;16.70;99.90
5743;DHT22;2896;53.500;10.020;2022-09-17T12:11:41;16.70;99.90
5743;DHT22;2896;53.500;10.020;2022-09-17T12:14:16;16.60;99.90
5743;DHT22;2896;53.500;10.020;2022-09-17T12:16:48;16.30;99.90
5743;DHT22;2896;53.500;10.020;2022-09-17T12:19:21;16.00;99.90
5743;DHT22;2896;53.500;10.020;2022-09-17T12:21:52;16.10;99.90
5743;DHT22;2896;53.500;10.020;2022-09-17T12:24:22;16.50;99.90
5743;DHT22;2896;53.500;10.020;2022-09-17T12:27:00;16.40;99.90
5743;DHT22;2896;53.500;10.020;2022-09-17T12:29:46;16.30;99.90
5743;DHT22;2896;53.500;10.020;2022-09-17T12:32:29;16.50;99.90
5743;DHT22;2896;53.500;10.020;2022-09-17T12:35:05;18.20;99.90
5743;DHT22;2896;53.500;10.020;2022-09-17T12:37:39;16.40;99.90
5743;DHT22;2896;53.500;10.020;2022-09-17T12:40:21;16.50;99.90
5743;DHT22;2896;53.500;10.020;2022-09-17T12:43:11;17.20;99.90
5743;DHT22;2896;53.500;10.020;2022-09-17T12:46:02;17.60;99.90
5743;DHT22;2896;53.500;10.020;2022-09-17T12:49:00;17.80;99.90
5743;DHT22;2896;53.500;10.020;2022-09-17T12:51:51;17.60;99.90
5743;DHT22;2896;53.500;10.020;2022-09-17T12:54:41;17.70;99.90
5743;DHT22;2896;53.500;10.020;2022-09-17T12:57:19;16.90;99.90
5743;DHT22;2896;53.500;10.020;2022-09-17T12:59:50;17.20;99.90
5743;DHT22;2896;53.500;10.020;2022-09-17T13:02:23;16.90;99.90
5743;DHT22;2896;53.500;10.020;2022-09-17T13:05:15;16.80;99.90
5743;DHT22;2896;53.500;10.020;2022-09-17T13:11:03;17.50;99.90
5743;DHT22;2896;53.500;10.020;2022-09-17T13:13:36;17.10;99.90
5743;DHT22;2896;53.500;10.020;2022-09-17T13:16:12;17.40;99.90
5743;DHT22;2896;53.500;10.020;2022-09-17T13:18:51;17.70;99.90
5743;DHT22;2896;53.500;10.020;2022-09-17T13:21:22;18.20;99.90
5743;DHT22;2896;53.500;10.020;2022-09-17T13:23:51;18.00;99.90
5743;DHT22;2896;53.500;10.020;2022-09-17T13:26:21;17.70;99.90
5743;DHT22;2896;53.500;10.020;2022-09-17T13:28:59;17.30;99.90
5743;DHT22;2896;53.500;10.020;2022-09-17T13:31:47;16.80;99.90
5743;DHT22;2896;53.500;10.020;2022-09-17T13:34:29;16.30;99.90
5743;DHT22;2896;53.500;10.020;2022-09-17T13:36:57;15.70;99.90
5743;DHT22;2896;53.500;10.020;2022-09-17T13:39:48;15.40;99.90
5743;DHT22;2896;53.500;10.020;2022-09-17T13:42:18;15.10;99.90
5743;DHT22;2896;53.500;10.020;2022-09-17T13:44:50;15.00;99.90
5743;DHT22;2896;53.500;10.020;2022-09-17T13:47:22;14.90;99.90
5743;DHT22;2896;53.500;10.020;2022-09-17T13:49:53;15.00;99.90
5743;DHT22;2896;53.500;10.020;2022-09-17T13:52:35;15.00;99.90
5743;DHT22;2896;53.500;10.020;2022-09-17T13:55:05;14.80;99.90
5743;DHT22;2896;53.500;10.020;2022-09-17T13:57:44;14.90;99.90
5743;DHT22;2896;53.500;10.020;2022-09-17T14:00:46;15.20;99.90
5743;DHT22;2896;53.500;10.020;2022-09-17T14:03:46;15.90;99.90
5743;DHT22;2896;53.500;10.020;2022-09-17T14:06:48;16.60;99.90
5743;DHT22;2896;53.500;10.020;2022-09-17T14:09:44;17.10;99.90
5743;DHT22;2896;53.500;10.020;2022-09-17T14:12:55;16.90;99.90
5743;DHT22;2896;53.500;10.020;2022-09-17T14:15:58;16.30;99.90
5743;DHT22;2896;53.500;10.020;2022-09-17T14:18:57;16.20;99.90
5743;DHT22;2896;53.500;10.020;2022-09-17T14:21:30;15.90;99.90
5743;DHT22;2896;53.500;10.020;2022-09-17T14:23:59;15.90;99.90
5743;DHT22;2896;53.500;10.020;2022-09-17T14:26:42;15.70;99.90
5743;DHT22;2896;53.500;10.020;2022-09-17T14:29:30;15.60;99.90
5743;DHT22;2896;53.500;10.020;2022-09-17T14:32:00;15.40;99.90
5743;DHT22;2896;53.500;10.020;2022-09-17T14:34:27;15.50;99.90
5743;DHT22;2896;53.500;10.020;2022-09-17T14:36:55;15.40;99.90
5743;DHT22;2896;53.500;10.020;2022-09-17T14:39:23;15.40;99.90
5743;DHT22;2896;53.500;10.020;2022-09-17T14:41:53;15.60;99.90
5743;DHT22;2896;53.500;10.020;2022-09-17T14:44:23;15.50;99.90
5743;DHT22;2896;53.500;10.020;2022-09-17T14:46:54;15.60;99.90
5743;DHT22;2896;53.500;10.020;2022-09-17T14:49:24;15.60;99.90
5743;DHT22;2896;53.500;10.020;2022-09-17T14:51:52;15.50;99.90
5743;DHT22;2896;53.500;10.020;2022-09-17T14:54:21;15.10;99.90
5743;DHT22;2896;53.500;10.020;2022-09-17T14:56:52;14.60;99.90
5743;DHT22;2896;53.500;10.020;2022-09-17T14:59:28;14.30;99.90
5743;DHT22;2896;53.500;10.020;2022-09-17T15:01:58;13.80;99.90
5743;DHT22;2896;53.500;10.020;2022-09-17T15:04:28;13.70;99.90
5743;DHT22;2896;53.500;10.020;2022-09-17T15:07:06;13.70;99.90
5743;DHT22;2896;53.500;10.020;2022-09-17T15:09:33;13.60;99.90
5743;DHT22;2896;53.500;10.020;2022-09-17T15:12:01;13.40;99.90
5743;DHT22;2896;53.500;10.020;2022-09-17T15:14:30;13.20;99.90
5743;DHT22;2896;53.500;10.020;2022-09-17T15:16:59;13.10;99.90
5743;DHT22;2896;53.500;10.020;2022-09-17T15:19:32;13.20;99.90
5743;DHT22;2896;53.500;10.020;2022-09-17T15:22:04;13.20;99.90
5743;DHT22;2896;53.500;10.020;2022-09-17T15:24:37;13.20;99.90
5743;DHT22;2896;53.500;10.020;2022-09-17T15:27:10;13.20;99.90
5743;DHT22;2896;53.500;10.020;2022-09-17T15:29:41;13.30;99.90
5743;DHT22;2896;53.500;10.020;2022-09-17T15:32:11;13.40;99.90
5743;DHT22;2896;53.500;10.020;2022-09-17T15:34:39;13.40;99.90
5743;DHT22;2896;53.500;10.020;2022-09-17T15:37:16;13.40;99.90
5743;DHT22;2896;53.500;10.020;2022-09-17T15:39:46;13.40;99.90
5743;DHT22;2896;53.500;10.020;2022-09-17T15:42:20;13.40;99.90
5743;DHT22;2896;53.500;10.020;2022-09-17T15:44:47;13.40;99.90
5743;DHT22;2896;53.500;10.020;2022-09-17T15:47:33;13.40;99.90
5743;DHT22;2896;53.500;10.020;2022-09-17T15:50:11;16.20;99.90
5743;DHT22;2896;53.500;10.020;2022-09-17T15:52:37;13.20;99.90
5743;DHT22;2896;53.500;10.020;2022-09-17T15:55:05;13.20;99.90
5743;DHT22;2896;53.500;10.020;2022-09-17T15:57:32;13.20;99.90
5743;DHT22;2896;53.500;10.020;2022-09-17T16:00:05;13.00;99.90
5743;DHT22;2896;53.500;10.020;2022-09-17T16:02:33;13.00;99.90
5743;DHT22;2896;53.500;10.020;2022-09-17T16:08:23;13.10;99.90
5743;DHT22;2896;53.500;10.020;2022-09-17T16:10:50;13.20;99.90
5743;DHT22;2896;53.500;10.020;2022-09-17T16:13:16;13.20;99.90
5743;DHT22;2896;53.500;10.020;2022-09-17T16:15:43;13.20;99.90
5743;DHT22;2896;53.500;10.020;2022-09-17T16:18:14;13.10;99.90
5743;DHT22;2896;53.500;10.020;2022-09-17T16:20:41;13.00;99.90
5743;DHT22;2896;53.500;10.020;2022-09-17T16:23:08;13.00;99.90
5743;DHT22;2896;53.500;10.020;2022-09-17T16:25:37;13.00;99.90
5743;DHT22;2896;53.500;10.020;2022-09-17T16:28:12;13.00;99.90